Miami, FL

11:17 AM EST on March 05, 2015 (GMT -0500)
JA Richmond West | Change Station
CLOSE
Current Station
Personal Weather Station
Location: Miami, FL
Elevation: 7 ft
Nearby Weather Stations

Elev 7 ft 25.61 °N, 80.43 °W | Updated 5 seconds ago

Scattered Clouds
Scattered Clouds
86.4 °F
Feels Like 93 °F
N
4.2
Wind Variable Wind from NNE
Gusts 8.9 mph

Today
High -- | Low -- °F
--% Chance of Precip.
Yesterday
High -- | Low -- °F
Precip. -- in
6:41 AM 6:25 PM
Full, 100% visible
Pressure 30.14 in
Visibility 10.0 miles
Clouds Few 2700 ft
Scattered Clouds 3100 ft
Scattered Clouds 4200 ft
Heat Index 93 °F
Dew Point 73 °F
Humidity 64%
Rainfall in
Snow Depth Not available.
UV 8 out of 12
Pollen 10.30 out of 12
Air Quality Not available.
Flu Activity Not available.
METAR KTMB 051553Z 16012KT 10SM FEW027 SCT031 SCT042 28/21 A3015 RMK AO2 SLP207 T02780206

More Conditions Fewer Conditions

Pressure 30.14 in
Visibility 10.0 miles
Clouds Few 2700 ft
Scattered Clouds 3100 ft
Scattered Clouds 4200 ft
Heat Index 93 °F
Dew Point 73 °F
Humidity 64%
Rainfall in
Snow Depth Not available.
UV 8 out of 12
Pollen 10.30 out of 12
Air Quality Not available.
Flu Activity Not available.
METAR KTMB 051553Z 16012KT 10SM FEW027 SCT031 SCT042 28/21 A3015 RMK AO2 SLP207 T02780206

More Conditions Fewer Conditions

10-Day Weather Forecast

Almanac

Astronomy

Mar. 05, 2015 Rise Set
Actual Time
Civil Twilight
Nautical Twilight
Astronomical Twilight
Moon
Length of Visible Light
Length of Day
Tomorrow will be .
, % of the Moon is Illuminated

Today's Extremes

State Highs State Lows

Community

WunderPhotos

Upload Photos

1,802,841 photos uploaded!

WunderBlogs® & News

Nearby

Air Quality

  Air Quality AQ Index Pollutant
Not available.

Snow Depth

Station Depth Elevation

Earthquake Activity

City Distance Mag. Time & Date
Minimum magnitude displayed is 2.5.

Coastal Water Temperatures

Place Temperature

Nearby Weather Stations